Nearby METAR Reports

EGQS - RAF Lossiemouth, UK
Distance from station: WNW 12mi, 19km
Updated: 28/10/2021 18:50
Partly cloudy
Partly cloudy
 Wind from S
Wind: S 3 mph , 6 km/h
Temperature: 9°C
Dew Point: 8°C
Humidity: 94%
Barometer: 994 hPa
Clouds: Partly cloudy
Visibility: 6 miles , 10 km
Cloud details: Few Clouds 914 m
Partly cloudy 7620 m
2021/10/28 17:50 EGQS 281750Z 17003KT 9999 FEW030 SCT250 09/08 Q0994 RMK BLU
EGQK - RAF Kinloss, UK
Distance from station: WSW 22mi, 36km
Updated: 28/10/2021 18:50
Few Clouds
Few Clouds
 Wind from SSE
Wind: SSE 5 mph , 7 km/h
Temperature: 9°C
Wind Chill: 8°C
Dew Point: 8°C
Humidity: 94%
Barometer: 994 hPa
Clouds: Few Clouds
Visibility: 6 miles , 10 km
Cloud details: Few Clouds 7620 m
2021/10/28 17:50 EGQK 281750Z AUTO 15004KT 9999 FEW250/// 09/08 Q0994
 
EGPE - Inverness/Dalcross, UK
Distance from station: WSW 39mi, 63km
Updated: 28/10/2021 18:50
Clear
Clear
 Wind from varies
Wind: varies 1 mph , 2 km/h
Temperature: 7°C
Dew Point: 7°C
Humidity: 100%
Barometer: 994 hPa
Summary: Clear
Visibility: greater than 7 miles , 10 km
2021/10/28 17:50 EGPE 281750Z VRB01KT CAVOK 07/07 Q0994
EGPD - Aberdeen/Dyce, UK
Distance from station: SE 44mi, 71km
Updated: 28/10/2021 18:50
Clear
Clear
 Wind from varies
Wind: varies 3 mph , 6 km/h
Temperature: 10°C
Dew Point: 9°C
Humidity: 94%
Barometer: 995 hPa
Clouds: Clear
Visibility: 6 miles , 10 km
2021/10/28 17:50 EGPD 281750Z AUTO VRB03KT 9999 NCD 10/09 Q0995 NOSIG